Time;durP1;ratioP1;P1;durP2;ratioP2;P2;SDS_P1;SDS_P2;PMS_P1;PMS_P2;Temp;Humidity;BMP_temperature;BMP_pressure;BME280_temperature;BME280_humidity;BME280_pressure;Samples;Min_cycle;Max_cycle;Signal;HPM_P1;HPM_P2
2021/08/18 00:00:23;;;;;;;10.20;4.65;;;;;;;14.38;58.26;99866.78;4989426;28;105982;-70
2021/08/18 00:02:48;;;;;;;7.68;4.32;;;;;;;14.33;58.27;99864.69;4989042;28;105916;-69
2021/08/18 00:05:15;;;;;;;8.43;4.20;;;;;;;14.31;58.33;99855.19;4990109;28;106001;-66
2021/08/18 00:07:41;;;;;;;8.60;4.50;;;;;;;14.28;58.46;99861.78;4988986;28;106189;-66
2021/08/18 00:10:12;;;;;;;9.60;4.07;;;;;;;14.25;58.59;99864.06;4989079;28;106136;-65
2021/08/18 00:12:39;;;;;;;6.85;4.32;;;;;;;14.21;58.79;99867.16;4988438;28;105987;-67
2021/08/18 00:15:05;;;;;;;8.48;3.95;;;;;;;14.20;59.09;99870.00;4989984;28;106916;-67
2021/08/18 00:17:31;;;;;;;6.97;3.90;;;;;;;14.16;59.17;99860.72;4988652;28;106261;-65
2021/08/18 00:19:57;;;;;;;6.47;4.20;;;;;;;14.15;59.18;99862.59;4989126;28;107330;-66
2021/08/18 00:22:22;;;;;;;8.77;4.18;;;;;;;14.13;59.36;99859.25;4989066;28;105918;-66
2021/08/18 00:24:48;;;;;;;7.72;4.22;;;;;;;14.10;59.25;99856.19;4989876;28;105946;-65
2021/08/18 00:27:13;;;;;;;8.00;3.88;;;;;;;14.11;59.63;99872.06;4989205;28;106219;-66
2021/08/18 00:29:40;;;;;;;9.63;4.25;;;;;;;14.11;59.75;99866.69;4988602;28;105957;-66
2021/08/18 00:32:06;;;;;;;7.90;4.38;;;;;;;14.11;59.77;99864.00;4988859;28;105818;-68
2021/08/18 00:34:31;;;;;;;9.30;4.85;;;;;;;14.13;59.98;99875.34;4989238;28;105878;-69
2021/08/18 00:36:57;;;;;;;7.70;4.40;;;;;;;14.14;59.83;99866.28;4988323;28;106325;-68
2021/08/18 00:39:22;;;;;;;9.10;4.57;;;;;;;14.17;60.00;99876.59;4988594;28;106056;-69
2021/08/18 00:41:48;;;;;;;10.25;4.70;;;;;;;14.17;60.22;99873.91;4988299;28;106004;-67
2021/08/18 00:44:13;;;;;;;7.40;4.38;;;;;;;14.17;60.11;99873.91;4989044;28;106095;-66
2021/08/18 00:46:53;;;;;;;7.70;4.60;;;;;;;14.18;60.18;99869.41;4988545;28;106130;-65
2021/08/18 00:49:20;;;;;;;10.25;4.90;;;;;;;14.20;60.32;99886.06;4987904;28;106309;-65
2021/08/18 00:51:47;;;;;;;7.57;4.95;;;;;;;14.22;60.51;99873.31;4987955;28;105933;-66
2021/08/18 00:54:12;;;;;;;8.60;4.88;;;;;;;14.25;60.44;99875.59;4988725;28;106004;-68
2021/08/18 00:56:38;;;;;;;7.22;4.45;;;;;;;14.31;60.46;99876.63;4988376;28;106122;-68
2021/08/18 00:59:03;;;;;;;10.50;4.82;;;;;;;14.36;60.67;99874.97;4988090;28;106025;-66
2021/08/18 01:01:29;;;;;;;8.60;4.95;;;;;;;14.42;60.40;99876.06;4987812;28;107282;-64
2021/08/18 01:03:54;;;;;;;12.55;5.07;;;;;;;14.44;60.35;99871.31;4988566;28;105964;-66
2021/08/18 01:06:19;;;;;;;9.85;5.28;;;;;;;14.49;60.25;99873.34;4988322;28;106174;-67
2021/08/18 01:08:45;;;;;;;9.70;5.32;;;;;;;14.50;59.84;99875.88;4988251;28;106035;-67
2021/08/18 01:11:10;;;;;;;8.88;5.05;;;;;;;14.54;60.23;99877.09;4987630;28;106009;-70
2021/08/18 01:13:35;;;;;;;9.75;4.60;;;;;;;14.55;59.99;99878.72;4988656;28;105957;-69
2021/08/18 01:16:01;;;;;;;9.95;5.18;;;;;;;14.53;59.93;99869.28;4987534;28;106186;-66
2021/08/18 01:18:26;;;;;;;7.30;5.07;;;;;;;14.52;59.74;99871.09;4987764;28;105960;-66
2021/08/18 01:20:52;;;;;;;11.73;6.05;;;;;;;14.54;59.84;99871.75;4987932;28;106016;-65
2021/08/18 01:23:17;;;;;;;11.82;5.00;;;;;;;14.53;60.02;99875.44;4989097;28;106292;-65
2021/08/18 01:25:44;;;;;;;9.57;4.63;;;;;;;14.53;59.81;99870.09;4991499;28;106114;-66
2021/08/18 01:28:11;;;;;;;10.85;4.80;;;;;;;14.54;60.02;99876.25;4990840;28;105951;-68
2021/08/18 01:30:37;;;;;;;8.90;4.75;;;;;;;14.54;59.84;99871.75;4991128;28;106394;-67
2021/08/18 01:33:09;;;;;;;10.13;5.18;;;;;;;14.56;59.87;99874.22;4991938;28;106053;-69
2021/08/18 01:35:41;;;;;;;7.82;4.93;;;;;;;14.55;59.81;99870.69;4989881;28;106017;-66
2021/08/18 01:38:08;;;;;;;10.70;5.15;;;;;;;14.54;59.98;99874.44;4990441;28;105991;-70
2021/08/18 01:40:34;;;;;;;8.50;5.15;;;;;;;14.53;59.61;99875.44;4990550;28;106111;-68
2021/08/18 01:43:00;;;;;;;8.70;4.82;;;;;;;14.50;60.02;99875.88;4991740;28;106803;-68
2021/08/18 01:45:35;;;;;;;9.35;5.40;;;;;;;14.49;59.74;99873.34;4991090;28;106321;-68
2021/08/18 01:48:10;;;;;;;9.75;5.35;;;;;;;14.44;59.84;99865.13;4990778;28;105929;-68
2021/08/18 01:50:35;;;;;;;9.35;4.80;;;;;;;14.37;59.68;99876.66;4989464;28;106354;-69
2021/08/18 01:53:01;;;;;;;11.00;5.60;;;;;;;14.32;59.78;99878.28;4991411;28;106122;-66
2021/08/18 01:55:27;;;;;;;10.05;4.97;;;;;;;14.27;60.14;99876.22;4990913;28;105978;-67
2021/08/18 01:57:57;;;;;;;9.88;5.22;;;;;;;14.19;60.08;99873.72;4990744;28;106002;-65
2021/08/18 02:00:24;;;;;;;12.15;5.25;;;;;;;14.16;60.46;99869.59;4990897;28;106106;-66
2021/08/18 02:02:49;;;;;;;10.07;5.43;;;;;;;14.13;60.52;99874.53;4991475;28;106056;-66
2021/08/18 02:05:16;;;;;;;7.63;5.25;;;;;;;14.10;60.58;99866.91;4990657;28;106177;-65
2021/08/18 02:07:41;;;;;;;10.52;5.22;;;;;;;14.08;60.83;99867.09;4990391;28;105920;-69
2021/08/18 02:10:12;;;;;;;11.07;5.18;;;;;;;14.07;60.93;99865.44;4989761;28;105878;-69
2021/08/18 02:12:38;;;;;;;9.63;5.22;;;;;;;14.02;60.78;99865.22;4991088;28;105957;-70
2021/08/18 02:15:10;;;;;;;11.05;5.40;;;;;;;13.99;60.90;99873.66;4990170;28;105969;-68
2021/08/18 02:17:35;;;;;;;10.18;5.57;;;;;;;13.94;61.27;99865.38;4989330;28;106132;-71
2021/08/18 02:20:03;;;;;;;10.60;5.05;;;;;;;13.88;61.13;99869.69;4989478;28;105996;-71
2021/08/18 02:22:28;;;;;;;11.52;5.28;;;;;;;13.81;61.15;99868.84;4989241;28;106691;-69
2021/08/18 02:24:53;;;;;;;9.63;5.53;;;;;;;13.77;61.02;99870.28;4990170;28;105983;-72
2021/08/18 02:27:19;;;;;;;12.55;5.00;;;;;;;13.68;61.25;99867.78;4990265;28;111566;-72
2021/08/18 02:29:44;;;;;;;9.27;5.28;;;;;;;13.63;61.79;99872.88;4989632;28;105912;-71
2021/08/18 02:32:09;;;;;;;16.10;5.45;;;;;;;13.54;61.60;99872.22;4991246;28;105882;-69
2021/08/18 02:34:35;;;;;;;9.40;4.45;;;;;;;13.47;62.05;99876.69;4990568;28;106306;-70
2021/08/18 02:37:00;;;;;;;9.93;5.28;;;;;;;13.41;61.75;99877.50;4989589;28;106432;-67
2021/08/18 02:39:25;;;;;;;8.48;5.57;;;;;;;13.34;62.18;99881.94;4990002;28;105899;-66
2021/08/18 02:41:51;;;;;;;9.07;5.05;;;;;;;13.21;61.99;99878.13;4990596;28;106168;-71
2021/08/18 02:44:16;;;;;;;10.35;4.85;;;;;;;13.11;62.22;99880.34;4990287;28;106220;-68
2021/08/18 02:46:41;;;;;;;8.52;5.47;;;;;;;13.01;62.62;99886.03;4989944;28;106360;-65
2021/08/18 02:49:07;;;;;;;7.85;5.03;;;;;;;12.90;62.88;99875.03;4990019;28;106040;-68
2021/08/18 02:51:32;;;;;;;10.90;5.50;;;;;;;12.82;63.10;99876.84;4990470;28;106027;-66
2021/08/18 02:53:57;;;;;;;12.57;5.15;;;;;;;12.76;62.89;99882.13;4989938;28;106192;-71
2021/08/18 02:56:23;;;;;;;9.73;5.00;;;;;;;12.69;63.71;99879.38;4989587;28;105830;-68
2021/08/18 02:58:48;;;;;;;10.82;5.70;;;;;;;12.63;63.33;99883.66;4989752;28;106256;-70
2021/08/18 03:01:13;;;;;;;10.68;5.70;;;;;;;12.58;63.60;99879.91;4990705;28;106037;-72
2021/08/18 03:03:39;;;;;;;9.98;5.35;;;;;;;12.51;63.42;99886.00;4990013;28;106163;-68
2021/08/18 03:06:04;;;;;;;12.27;6.13;;;;;;;12.47;64.30;99884.72;4989560;28;106624;-65
2021/08/18 03:08:29;;;;;;;10.45;5.30;;;;;;;12.44;64.31;99884.25;4989332;28;106098;-72
2021/08/18 03:10:55;;;;;;;10.50;5.05;;;;;;;12.38;64.42;99888.53;4990533;28;105911;-71
2021/08/18 03:13:20;;;;;;;7.80;5.32;;;;;;;12.34;64.22;99887.25;4989633;28;106271;-68
2021/08/18 03:15:45;;;;;;;10.88;5.68;;;;;;;12.28;64.41;99888.03;4989201;28;106757;-75
2021/08/18 03:18:11;;;;;;;8.75;5.45;;;;;;;12.26;65.14;99884.69;4989036;28;105892;-72
2021/08/18 03:20:36;;;;;;;11.38;5.80;;;;;;;12.27;64.73;99889.84;4990076;28;106155;-67
2021/08/18 03:23:01;;;;;;;11.65;5.93;;;;;;;12.25;64.87;99883.06;4989483;28;106180;-66
2021/08/18 03:25:27;;;;;;;12.20;5.30;;;;;;;12.24;65.15;99892.09;4988127;28;106146;-65
2021/08/18 03:27:52;;;;;;;11.63;5.65;;;;;;;12.18;65.38;99881.13;4987603;28;105921;-65
2021/08/18 03:30:17;;;;;;;11.73;5.95;;;;;;;12.14;65.28;99882.53;4989826;28;105925;-68
2021/08/18 03:32:43;;;;;;;10.35;5.32;;;;;;;12.07;65.04;99878.97;4989374;28;105789;-70
2021/08/18 03:35:09;;;;;;;12.27;4.78;;;;;;;11.99;65.44;99879.88;4989169;28;106065;-70
2021/08/18 03:37:34;;;;;;;10.88;5.97;;;;;;;11.97;66.01;99878.41;4988775;28;106007;-66
2021/08/18 03:39:59;;;;;;;11.90;5.38;;;;;;;11.91;65.58;99879.16;4989750;28;106019;-69
2021/08/18 03:42:25;;;;;;;14.15;5.50;;;;;;;11.83;65.75;99878.22;4989217;28;106203;-68
2021/08/18 03:44:51;;;;;;;13.95;6.00;;;;;;;11.77;66.21;99878.97;4988910;28;106143;-68
2021/08/18 03:47:16;;;;;;;11.05;5.32;;;;;;;11.71;66.01;99874.38;4988483;28;106120;-71
2021/08/18 03:49:41;;;;;;;10.15;6.10;;;;;;;11.65;65.85;99880.47;4989566;28;106002;-65
2021/08/18 03:52:07;;;;;;;12.80;6.15;;;;;;;11.57;65.95;99886.69;4989087;28;106167;-67
2021/08/18 03:54:34;;;;;;;12.63;6.13;;;;;;;11.50;66.72;99883.94;4988593;28;106354;-65
2021/08/18 03:56:59;;;;;;;9.48;5.45;;;;;;;11.45;66.91;99886.31;4988875;28;106132;-65
2021/08/18 03:59:24;;;;;;;11.73;5.70;;;;;;;11.42;66.82;99884.03;4989795;28;106144;-66
2021/08/18 04:01:50;;;;;;;11.38;6.10;;;;;;;11.37;67.02;99880.25;4986965;28;106232;-64
2021/08/18 04:04:15;;;;;;;15.25;6.15;;;;;;;11.33;66.82;99879.78;4988469;28;108490;-65
2021/08/18 04:06:41;;;;;;;12.52;6.40;;;;;;;11.33;67.62;99885.97;4988048;28;106050;-65
2021/08/18 04:09:06;;;;;;;11.27;5.97;;;;;;;11.31;67.34;99890.63;4989233;28;106074;-65
2021/08/18 04:11:32;;;;;;;12.82;5.88;;;;;;;11.34;67.92;99889.44;4988051;28;106208;-65
2021/08/18 04:13:57;;;;;;;12.80;6.90;;;;;;;11.36;67.51;99895.44;4988217;28;105868;-65
2021/08/18 04:16:23;;;;;;;12.30;6.28;;;;;;;11.40;68.19;99896.72;4988345;28;106120;-67
2021/08/18 04:18:48;;;;;;;11.07;6.13;;;;;;;11.44;67.95;99895.34;4989142;28;106103;-66
2021/08/18 04:21:14;;;;;;;12.18;6.00;;;;;;;11.47;68.59;99897.66;4987097;28;106191;-64
2021/08/18 04:23:39;;;;;;;12.02;6.03;;;;;;;11.51;68.04;99900.78;4987294;28;106398;-64
2021/08/18 04:26:05;;;;;;;10.35;6.35;;;;;;;11.54;68.06;99899.56;4987376;28;106509;-64
2021/08/18 04:28:30;;;;;;;11.98;6.88;;;;;;;11.60;68.06;99909.53;4987968;28;105973;-66
2021/08/18 04:30:55;;;;;;;10.95;5.53;;;;;;;11.65;67.91;99909.81;4986692;28;106014;-66
2021/08/18 04:33:21;;;;;;;12.57;6.28;;;;;;;11.69;68.39;99913.75;4986703;28;106475;-64
2021/08/18 04:35:46;;;;;;;14.77;6.30;;;;;;;11.73;67.99;99912.38;4987817;28;106573;-66
2021/08/18 04:38:12;;;;;;;13.48;6.03;;;;;;;11.78;67.95;99910.00;4988261;28;106182;-66
2021/08/18 04:40:37;;;;;;;14.57;6.15;;;;;;;11.78;67.74;99909.16;4988466;28;106193;-68
2021/08/18 04:43:02;;;;;;;16.42;6.07;;;;;;;11.80;68.27;99912.47;4987893;28;105931;-64
2021/08/18 04:45:28;;;;;;;13.60;6.30;;;;;;;11.85;68.46;99921.56;4988034;28;106370;-66
2021/08/18 04:47:53;;;;;;;11.38;5.22;;;;;;;11.93;68.68;99925.16;4989025;28;106319;-66
2021/08/18 04:50:19;;;;;;;13.43;5.45;;;;;;;11.99;68.04;99927.13;4988234;28;105890;-66
2021/08/18 04:52:45;;;;;;;11.48;5.57;;;;;;;12.04;68.46;99922.03;4987833;28;105935;-67
2021/08/18 04:55:13;;;;;;;11.07;5.32;;;;;;;12.13;68.12;99923.59;4987560;28;105858;-68
2021/08/18 04:57:38;;;;;;;10.88;5.35;;;;;;;12.27;68.30;99926.41;4988564;28;106449;-68
2021/08/18 05:00:05;;;;;;;9.98;5.43;;;;;;;12.39;68.24;99930.25;4990900;28;106322;-66
2021/08/18 05:02:33;;;;;;;10.00;5.28;;;;;;;12.51;68.37;99927.94;4990158;28;106839;-64
2021/08/18 05:05:00;;;;;;;10.20;4.75;;;;;;;12.64;68.23;99938.75;4987853;28;106031;-63
2021/08/18 05:07:25;;;;;;;8.70;5.00;;;;;;;12.77;67.67;99940.72;4988929;28;106305;-63
2021/08/18 05:09:50;;;;;;;11.68;5.43;;;;;;;12.92;67.87;99937.16;4988935;28;106149;-63
2021/08/18 05:12:16;;;;;;;11.13;5.15;;;;;;;13.06;67.60;99944.28;4990530;28;106693;-64
2021/08/18 05:14:41;;;;;;;11.43;5.20;;;;;;;13.21;67.10;99946.88;4988648;28;107256;-65
2021/08/18 05:17:07;;;;;;;10.63;5.38;;;;;;;13.35;66.82;99948.66;4991225;28;106103;-63
2021/08/18 05:19:32;;;;;;;9.77;5.40;;;;;;;13.54;66.90;99944.50;4991044;28;106124;-67
2021/08/18 05:21:57;;;;;;;9.40;5.30;;;;;;;13.73;66.27;99952.81;4991176;28;106213;-65
2021/08/18 05:24:23;;;;;;;8.50;4.75;;;;;;;13.82;65.85;99948.13;4990970;28;105877;-63
2021/08/18 05:26:48;;;;;;;12.25;4.63;;;;;;;13.79;65.24;99946.69;4991807;28;105973;-62
2021/08/18 05:29:13;;;;;;;9.68;5.00;;;;;;;13.77;64.89;99943.38;4991022;28;106182;-62
2021/08/18 05:31:39;;;;;;;11.18;4.25;;;;;;;13.80;64.90;99956.34;4990246;28;107532;-65
2021/08/18 05:34:04;;;;;;;9.70;4.35;;;;;;;13.86;65.05;99950.22;4990645;28;106019;-66
2021/08/18 05:36:30;;;;;;;8.07;3.90;;;;;;;13.98;64.83;99945.16;4991556;28;106134;-65
2021/08/18 05:38:55;;;;;;;7.10;3.95;;;;;;;14.08;64.56;99947.47;4991055;28;106082;-64
2021/08/18 05:41:20;;;;;;;9.70;4.35;;;;;;;14.20;64.05;99951.22;4990893;28;106349;-65
2021/08/18 05:43:46;;;;;;;8.73;4.38;;;;;;;14.29;64.08;99959.91;4990281;28;118094;-65
2021/08/18 05:46:11;;;;;;;8.15;4.18;;;;;;;14.40;63.65;99955.81;4990798;28;106303;-63
2021/08/18 05:48:36;;;;;;;8.32;3.40;;;;;;;14.54;63.77;99962.03;4974413;28;106446;-63
2021/08/18 05:51:02;;;;;;;8.80;3.60;;;;;;;14.70;63.13;99948.28;4989591;28;106607;-65
2021/08/18 05:53:27;;;;;;;6.93;3.83;;;;;;;14.77;62.80;99953.66;4990704;28;106303;-66
2021/08/18 05:55:53;;;;;;;8.77;4.32;;;;;;;14.88;62.67;99939.69;4991219;28;106565;-66
2021/08/18 05:58:18;;;;;;;7.78;4.18;;;;;;;15.06;62.24;99954.31;4990809;28;106112;-66
2021/08/18 06:00:44;;;;;;;8.23;3.45;;;;;;;15.18;61.53;99958.03;4990315;28;106009;-62
2021/08/18 06:03:10;;;;;;;6.88;4.22;;;;;;;15.28;60.96;99972.91;4990082;28;105975;-63
2021/08/18 06:05:38;;;;;;;7.00;3.67;;;;;;;15.31;60.55;99961.75;4991198;28;106261;-63
2021/08/18 06:08:05;;;;;;;7.88;4.32;;;;;;;15.39;60.81;99967.75;4989964;28;106282;-62
2021/08/18 06:10:30;;;;;;;9.48;4.53;;;;;;;15.52;59.78;99947.28;4990046;28;107276;-63
2021/08/18 06:12:55;;;;;;;7.75;3.75;;;;;;;15.65;59.51;99941.06;4990209;28;105890;-62
2021/08/18 06:15:21;;;;;;;6.38;3.92;;;;;;;15.79;58.94;99948.06;4991187;28;105818;-63
2021/08/18 06:17:47;;;;;;;8.88;3.65;;;;;;;15.80;58.84;99939.00;4990227;28;106561;-62
2021/08/18 06:20:16;;;;;;;7.88;3.78;;;;;;;15.77;57.87;99936.69;4990553;28;106205;-63
2021/08/18 06:22:41;;;;;;;7.45;3.83;;;;;;;15.75;58.07;99946.84;4990093;28;105968;-65
2021/08/18 06:25:07;;;;;;;9.43;4.00;;;;;;;15.81;57.98;99942.50;4991173;28;105861;-65
2021/08/18 06:27:32;;;;;;;6.88;3.83;;;;;;;15.85;57.73;99947.25;4990118;28;106434;-62
2021/08/18 06:29:58;;;;;;;6.20;3.72;;;;;;;15.98;57.35;99940.19;4989693;28;106095;-62
2021/08/18 06:32:23;;;;;;;10.55;3.85;;;;;;;16.01;57.19;99929.03;4989487;28;106060;-62
2021/08/18 06:34:53;;;;;;;8.50;3.08;;;;;;;16.06;56.62;99932.72;4990466;28;106267;-64
2021/08/18 06:37:18;;;;;;;10.50;3.97;;;;;;;16.04;56.40;99923.22;4989593;28;106304;-62
2021/08/18 06:39:44;;;;;;;7.63;3.53;;;;;;;16.08;56.17;99935.19;4989551;28;105792;-62
2021/08/18 06:42:09;;;;;;;7.38;3.63;;;;;;;16.12;56.05;99920.28;4989817;28;106489;-63
2021/08/18 06:44:34;;;;;;;6.78;3.67;;;;;;;16.16;56.45;99923.38;4989888;28;105654;-65
2021/08/18 06:47:00;;;;;;;6.57;3.72;;;;;;;16.28;56.39;99916.31;4990139;28;106134;-62
2021/08/18 06:49:25;;;;;;;8.15;3.22;;;;;;;16.48;55.25;99929.63;4989437;28;106072;-62
2021/08/18 06:51:50;;;;;;;6.03;3.70;;;;;;;16.47;54.96;99919.09;4989714;28;106180;-63
2021/08/18 06:54:16;;;;;;;10.05;3.92;;;;;;;16.46;55.00;99920.97;4990374;28;106081;-63
2021/08/18 06:56:41;;;;;;;7.70;3.92;;;;;;;16.59;55.06;99930.78;4989587;28;106193;-62
2021/08/18 06:59:07;;;;;;;6.47;4.07;;;;;;;16.69;54.63;99936.53;4989391;28;107069;-63
2021/08/18 07:01:32;;;;;;;7.30;3.25;;;;;;;16.73;54.27;99936.91;4989316;28;106081;-63
2021/08/18 07:03:57;;;;;;;7.18;3.72;;;;;;;16.68;53.77;99939.44;4990447;28;105848;-63
2021/08/18 07:06:23;;;;;;;6.70;3.30;;;;;;;16.66;54.16;99936.97;4989462;28;105772;-62
2021/08/18 07:08:48;;;;;;;7.18;3.10;;;;;;;16.84;54.12;99935.41;4989426;28;106212;-63
2021/08/18 07:11:13;;;;;;;7.88;3.80;;;;;;;17.03;54.34;99933.63;4989252;28;107128;-66
2021/08/18 07:13:39;;;;;;;6.95;3.15;;;;;;;17.19;53.16;99943.03;4990321;28;106031;-63
2021/08/18 07:16:05;;;;;;;5.03;3.15;;;;;;;17.28;52.89;99936.34;4987803;28;106038;-63
2021/08/18 07:18:30;;;;;;;5.90;3.10;;;;;;;17.43;52.61;99944.06;4988958;28;106638;-63
2021/08/18 07:20:55;;;;;;;6.20;2.80;;;;;;;17.48;52.43;99944.25;4988515;28;106107;-64
2021/08/18 07:23:21;;;;;;;6.88;3.03;;;;;;;17.54;52.09;99940.66;4989577;28;106410;-63
2021/08/18 07:25:46;;;;;;;6.50;2.97;;;;;;;17.62;52.19;99949.47;4989538;28;106264;-62
2021/08/18 07:28:12;;;;;;;10.18;2.85;;;;;;;17.77;51.76;99947.25;4989032;28;105993;-62
2021/08/18 07:30:37;;;;;;;5.03;3.10;;;;;;;17.99;51.43;99944.13;4989102;28;106008;-62
2021/08/18 07:33:02;;;;;;;5.32;2.65;;;;;;;18.10;50.73;99946.91;4988325;28;105995;-61
2021/08/18 07:35:29;;;;;;;5.78;2.88;;;;;;;18.04;50.04;99952.38;4987917;28;105881;-61
2021/08/18 07:37:54;;;;;;;5.82;2.53;;;;;;;18.18;50.45;99936.84;4987827;28;106920;-61
2021/08/18 07:40:19;;;;;;;4.72;2.40;;;;;;;18.44;49.99;99941.09;4988537;28;105808;-65
2021/08/18 07:42:45;;;;;;;5.65;2.58;;;;;;;18.68;49.34;99955.47;4989123;28;105798;-61
2021/08/18 07:45:10;;;;;;;4.93;2.35;;;;;;;18.98;49.63;99951.16;4988602;28;106185;-62
2021/08/18 07:47:36;;;;;;;6.47;2.90;;;;;;;19.11;47.73;99959.84;4988336;28;106567;-61
2021/08/18 07:50:03;;;;;;;4.28;2.40;;;;;;;19.04;47.19;99944.81;4988387;28;106120;-61
2021/08/18 07:52:28;;;;;;;5.85;2.85;;;;;;;19.14;47.60;99955.06;4988886;28;105722;-63
2021/08/18 07:54:53;;;;;;;8.00;2.65;;;;;;;19.16;47.45;99948.34;4987481;28;106614;-62
2021/08/18 07:57:19;;;;;;;5.00;2.63;;;;;;;19.35;47.31;99956.34;4988357;28;115434;-62
2021/08/18 07:59:44;;;;;;;6.05;2.65;;;;;;;19.43;46.16;99958.69;4988481;28;105844;-62
2021/08/18 08:02:10;;;;;;;4.63;2.13;;;;;;;19.41;45.85;99956.25;4989660;28;105852;-62
2021/08/18 08:04:35;;;;;;;4.22;2.28;;;;;;;19.63;46.55;99963.75;4988622;28;106230;-62
2021/08/18 08:07:00;;;;;;;4.22;2.40;;;;;;;19.91;46.08;99960.34;4988561;28;105943;-62
2021/08/18 08:09:26;;;;;;;4.72;2.17;;;;;;;19.93;45.21;99962.81;4988100;28;105958;-62
2021/08/18 08:11:51;;;;;;;4.55;2.10;;;;;;;20.07;45.71;99956.09;4989336;28;106061;-65
2021/08/18 08:14:16;;;;;;;4.63;1.98;;;;;;;20.24;44.83;99964.28;4988491;28;106240;-63
2021/08/18 08:16:42;;;;;;;5.93;2.17;;;;;;;20.37;44.73;99968.59;4987908;28;107556;-61
2021/08/18 08:19:08;;;;;;;5.95;2.03;;;;;;;20.57;44.04;99979.00;4987978;28;106019;-64
2021/08/18 08:21:33;;;;;;;3.92;2.28;;;;;;;20.45;43.08;99975.50;4988753;28;106021;-65
2021/08/18 08:23:59;;;;;;;5.38;2.88;;;;;;;20.29;43.19;99972.47;4988184;28;105977;-64
2021/08/18 08:26:24;;;;;;;4.45;2.30;;;;;;;20.33;43.38;99962.00;4988197;28;105936;-65
2021/08/18 08:28:49;;;;;;;5.63;2.15;;;;;;;20.42;43.29;99962.44;4987960;28;106413;-66
2021/08/18 08:31:15;;;;;;;5.35;2.42;;;;;;;20.48;43.20;99963.38;4988791;28;105822;-64
2021/08/18 08:33:40;;;;;;;5.07;2.60;;;;;;;20.68;42.67;99963.78;4988104;28;105640;-65
2021/08/18 08:36:06;;;;;;;5.05;2.40;;;;;;;20.79;42.63;99975.63;4987918;28;105785;-62
2021/08/18 08:38:32;;;;;;;3.92;2.17;;;;;;;20.76;42.10;99966.09;4987690;28;106420;-63
2021/08/18 08:40:57;;;;;;;4.50;2.20;;;;;;;20.75;42.08;99974.44;4988917;28;105822;-61
2021/08/18 08:43:24;;;;;;;4.30;2.58;;;;;;;20.74;41.77;99973.63;4988552;28;106094;-64
2021/08/18 08:45:50;;;;;;;4.30;2.05;;;;;;;21.02;41.42;99971.13;4988207;28;106082;-63
2021/08/18 08:48:17;;;;;;;4.32;1.85;;;;;;;21.06;41.37;99975.78;4986559;28;106845;-64
2021/08/18 08:50:48;;;;;;;4.22;2.22;;;;;;;21.16;41.02;99964.34;4987409;28;106028;-64
2021/08/18 08:53:14;;;;;;;3.25;1.70;;;;;;;21.21;41.07;99967.09;4988041;28;106282;-62
2021/08/18 08:55:40;;;;;;;8.90;2.00;;;;;;;21.10;41.23;99965.31;4987855;28;106005;-63
2021/08/18 08:58:06;;;;;;;3.30;1.70;;;;;;;21.24;41.35;99972.06;4987527;28;105967;-62
2021/08/18 09:00:31;;;;;;;2.88;1.73;;;;;;;22.14;40.25;99963.88;4988458;28;105912;-63
2021/08/18 09:03:15;;;;;;;5.72;1.40;;;;;;;23.98;37.67;99965.75;4988046;28;105825;-64
2021/08/18 09:05:40;;;;;;;2.47;1.30;;;;;;;24.27;35.57;99959.88;4987429;28;106036;-61
2021/08/18 09:08:15;;;;;;;3.75;1.25;;;;;;;25.36;35.22;99971.78;4987046;28;105995;-64
2021/08/18 09:10:41;;;;;;;5.15;1.52;;;;;;;25.93;32.38;99958.84;4987935;28;105897;-61
2021/08/18 09:13:15;;;;;;;4.38;1.40;;;;;;;26.85;30.66;99943.91;4987848;28;105950;-61
2021/08/18 09:16:01;;;;;;;4.80;2.00;;;;;;;29.04;28.93;99950.91;4987176;28;106149;-62
2021/08/18 09:18:45;;;;;;;4.03;1.80;;;;;;;28.67;27.48;99949.84;4986741;28;106515;-63
2021/08/18 09:21:46;;;;;;;4.72;1.85;;;;;;;27.57;28.03;99936.16;4986832;28;106496;-61
2021/08/18 09:24:11;;;;;;;7.47;1.50;;;;;;;27.17;30.18;99941.72;4965090;28;106142;-62
2021/08/18 09:26:53;;;;;;;4.68;1.50;;;;;;;30.60;26.79;99949.53;4982096;28;107079;-61
2021/08/18 09:29:34;;;;;;;4.20;1.52;;;;;;;30.88;23.79;99938.44;4987171;28;106161;-62
2021/08/18 09:32:25;;;;;;;2.75;1.15;;;;;;;29.28;26.35;99944.50;4988221;28;106029;-62
2021/08/18 09:34:52;;;;;;;3.90;1.70;;;;;;;27.85;27.18;99939.97;4987836;28;105948;-66
2021/08/18 09:37:18;;;;;;;2.83;1.52;;;;;;;26.93;29.01;99947.09;4986746;28;106031;-61
2021/08/18 09:39:43;;;;;;;3.72;1.15;;;;;;;25.64;29.34;99954.03;4987162;28;106499;-62
2021/08/18 09:42:26;;;;;;;2.92;1.42;;;;;;;25.59;30.60;99937.66;4986806;28;106052;-63
2021/08/18 09:45:07;;;;;;;5.05;1.52;;;;;;;24.76;30.94;99944.22;4988110;28;106199;-64
2021/08/18 09:47:32;;;;;;;2.88;1.40;;;;;;;23.97;32.44;99944.25;4990694;28;105963;-64
2021/08/18 09:49:58;;;;;;;4.68;1.50;;;;;;;24.07;32.22;99941.59;4990234;28;106837;-64
2021/08/18 09:52:24;;;;;;;3.40;1.55;;;;;;;23.64;32.91;99938.88;4990876;28;106403;-64
2021/08/18 09:54:50;;;;;;;3.63;1.30;;;;;;;24.09;32.67;99933.97;4990836;28;106202;-62
2021/08/18 09:57:15;;;;;;;3.75;1.50;;;;;;;23.49;33.42;99939.59;4990945;28;107029;-63
2021/08/18 09:59:43;;;;;;;3.28;1.42;;;;;;;25.15;32.73;99935.50;4990574;28;105984;-63
2021/08/18 10:02:10;;;;;;;4.00;1.25;;;;;;;28.29;28.17;99925.16;4991355;28;105885;-62
2021/08/18 10:04:35;;;;;;;3.47;1.13;;;;;;;29.66;25.44;99916.91;4990745;28;106158;-64
2021/08/18 10:07:01;;;;;;;3.38;1.00;;;;;;;30.34;24.56;99919.88;4990353;28;106289;-64
2021/08/18 10:09:27;;;;;;;2.03;1.00;;;;;;;29.64;24.74;99918.31;4990269;28;106173;-64
2021/08/18 10:11:52;;;;;;;2.80;1.27;;;;;;;30.23;24.65;99923.97;4990980;28;106044;-65
2021/08/18 10:14:21;;;;;;;4.97;1.00;;;;;;;30.39;23.72;99928.00;4990150;28;106173;-61
2021/08/18 10:16:46;;;;;;;3.13;0.93;;;;;;;29.46;25.05;99909.88;4989379;28;106112;-64
2021/08/18 10:19:12;;;;;;;3.45;1.13;;;;;;;28.60;25.63;99911.03;4989824;28;107153;-64
2021/08/18 10:21:38;;;;;;;4.38;1.08;;;;;;;28.14;27.33;99911.69;4990392;28;106081;-63
2021/08/18 10:24:06;;;;;;;2.33;1.02;;;;;;;28.27;26.34;99916.44;4990125;28;106138;-64
2021/08/18 10:26:31;;;;;;;1.75;1.20;;;;;;;27.74;27.41;99908.34;4989582;28;106409;-64
2021/08/18 10:29:13;;;;;;;5.68;1.10;;;;;;;28.28;27.48;99906.28;4989564;28;106143;-64
2021/08/18 10:31:41;;;;;;;4.25;1.23;;;;;;;28.76;26.96;99911.63;4990739;28;105889;-64
2021/08/18 10:34:30;;;;;;;3.95;1.30;;;;;;;28.78;26.87;99903.91;4989978;28;106149;-64
2021/08/18 10:37:01;;;;;;;3.67;1.20;;;;;;;28.99;26.69;99901.66;4989357;28;106782;-63
2021/08/18 10:39:29;;;;;;;1.60;0.90;;;;;;;28.87;26.64;99912.28;4987907;28;106419;-64
2021/08/18 10:42:37;;;;;;;3.70;1.15;;;;;;;28.15;26.55;99924.28;4988781;28;106085;-63
2021/08/18 10:45:23;;;;;;;1.80;0.93;;;;;;;27.18;27.95;99916.81;4981839;28;106238;-65
2021/08/18 10:47:48;;;;;;;0.80;0.70;;;;;;;26.32;29.35;99914.44;4985776;28;106527;-64
2021/08/18 10:50:16;;;;;;;2.15;1.00;;;;;;;26.12;29.76;99914.56;4987038;28;106045;-64
2021/08/18 10:52:41;;;;;;;2.67;0.80;;;;;;;26.13;30.16;99910.75;4988519;28;105971;-64
2021/08/18 10:55:11;;;;;;;3.53;0.88;;;;;;;25.96;30.18;99920.06;4987837;28;106019;-63
2021/08/18 10:57:50;;;;;;;1.60;0.70;;;;;;;25.63;30.70;99918.81;4989592;28;105955;-63
2021/08/18 11:00:21;;;;;;;0.97;0.57;;;;;;;25.96;30.36;99911.06;4989475;28;106083;-64
2021/08/18 11:03:12;;;;;;;1.67;0.68;;;;;;;26.39;29.94;99913.31;4990148;28;105887;-64
2021/08/18 11:05:37;;;;;;;1.50;0.90;;;;;;;26.25;29.45;99905.75;4989658;28;105901;-63
2021/08/18 11:08:09;;;;;;;1.67;1.10;;;;;;;25.83;29.61;99912.47;4989155;28;105984;-63
2021/08/18 11:10:55;;;;;;;2.53;0.88;;;;;;;25.20;30.57;99908.25;4989122;28;106000;-64
2021/08/18 11:13:43;;;;;;;1.50;1.05;;;;;;;24.94;31.47;99908.25;4984764;28;106184;-61
2021/08/18 11:16:29;;;;;;;1.85;0.75;;;;;;;25.03;31.72;99894.09;4989358;28;106201;-60
2021/08/18 11:18:59;;;;;;;1.67;0.90;;;;;;;25.14;31.82;99903.91;4989277;28;108076;-59
2021/08/18 11:21:29;;;;;;;1.33;0.88;;;;;;;25.52;31.29;99888.06;4988577;28;106758;-59